METAR Data
IDs: Format: Raw Decoded Include TAF

Data at: 1925 UTC 31 Jan 2023

METAR for:KHCR (Heber City Muni, UT, US)
Text:KHCR 311910Z AUTO 00000KT 10SM CLR M15/M21 A3031 RMK AO2
Temperature:-15.0°C ( 5°F)
Dewpoint:-21.0°C ( -6°F) [RH = 60%]
Pressure (altimeter):30.31 inches Hg (1026.5 mb)
Winds:calm
Visibility:10 or more sm (16+ km)
Ceiling:at least 12,000 feet AGL
Clouds:sky clear below 12,000 feet AGL
QC Flag:automated observation with no human augmentation